Time;durP1;ratioP1;P1;durP2;ratioP2;P2;SDS_P1;SDS_P2;PMS_P1;PMS_P2;Temp;Humidity;BMP_temperature;BMP_pressure;BME280_temperature;BME280_humidity;BME280_pressure;Samples;Min_cycle;Max_cycle;Signal;HPM_P1;HPM_P2
2023/07/04 00:00:58;;;;;;;3.63;1.23;;;16.40;83.20;;;18.89;55.96;100737.47;4974892;28;20593;-61
2023/07/04 00:03:26;;;;;;;1.80;1.00;;;16.30;83.10;;;18.71;56.37;100752.69;4975536;28;20267;-60
2023/07/04 00:05:54;;;;;;;1.30;1.10;;;16.20;83.20;;;18.52;56.69;100740.50;4975586;28;20197;-61
2023/07/04 00:08:27;;;;;;;1.63;1.10;;;16.00;83.50;;;18.36;57.07;100722.41;4975492;28;20607;-59
2023/07/04 00:10:57;;;;;;;2.20;1.13;;;15.90;83.60;;;18.27;57.38;100732.56;4975421;28;20749;-60
2023/07/04 00:13:26;;;;;;;4.03;1.30;;;15.80;84.50;;;18.22;57.68;100732.44;4975590;28;20192;-61
2023/07/04 00:15:55;;;;;;;3.07;1.73;;;15.70;85.20;;;18.18;58.01;100739.25;4975060;28;20196;-62
2023/07/04 00:18:25;;;;;;;1.70;1.47;;;15.70;85.90;;;18.16;58.53;100741.34;4975202;28;20188;-62
2023/07/04 00:20:55;;;;;;;1.47;1.20;;;15.60;86.60;;;18.18;58.58;100736.59;4975558;28;20654;-62
2023/07/04 00:23:27;;;;;;;2.67;1.40;;;15.60;87.00;;;18.14;58.82;100738.06;4975359;28;20224;-62
2023/07/04 00:25:55;;;;;;;2.33;1.40;;;15.60;87.40;;;18.18;59.20;100740.03;4974559;28;20180;-61
2023/07/04 00:28:24;;;;;;;1.90;1.33;;;15.60;88.00;;;18.22;59.10;100735.09;4975407;28;20192;-62
2023/07/04 00:30:54;;;;;;;4.47;1.90;;;15.50;87.90;;;18.29;59.38;100735.81;4976407;28;20224;-60
2023/07/04 00:33:24;;;;;;;2.60;1.43;;;15.60;88.40;;;18.33;59.40;100734.31;4975971;28;20185;-60
2023/07/04 00:36:00;;;;;;;3.07;1.60;;;15.60;88.40;;;18.37;59.26;100732.84;4975409;28;20275;-58
2023/07/04 00:38:32;;;;;;;2.67;1.60;;;15.60;88.70;;;18.45;59.44;100729.88;4974446;28;20243;-60
2023/07/04 00:41:01;;;;;;;2.90;1.33;;;15.70;89.20;;;18.49;59.40;100728.41;4974655;28;20194;-60
2023/07/04 00:43:59;;;;;;;3.50;2.13;;;15.70;89.10;;;18.52;59.34;100733.28;4974471;28;20196;-60
2023/07/04 00:46:38;;;;;;;1.87;1.37;;;15.70;89.00;;;18.57;59.27;100738.75;4974961;28;20196;-62
2023/07/04 00:49:18;;;;;;;3.87;1.53;;;15.80;88.80;;;18.60;58.95;100740.97;4974510;28;20204;-57
2023/07/04 00:51:53;;;;;;;3.70;2.03;;;15.80;88.70;;;18.64;59.08;100736.81;4974677;28;20727;-58
2023/07/04 00:54:24;;;;;;;3.70;1.63;;;15.90;88.80;;;18.67;58.99;100738.19;4974825;28;20645;-59
2023/07/04 00:56:58;;;;;;;3.50;1.83;;;15.90;88.70;;;18.68;58.98;100740.66;4973408;28;20612;-61
2023/07/04 00:59:27;;;;;;;2.90;1.70;;;15.90;88.80;;;18.73;59.00;100737.31;4964044;28;20235;-60
2023/07/04 01:01:56;;;;;;;3.53;1.53;;;15.90;88.80;;;18.77;58.98;100731.28;4974871;28;20227;-60
2023/07/04 01:04:23;;;;;;;2.43;1.10;;;16.00;88.80;;;18.80;59.12;100744.16;4974538;28;20665;-61
2023/07/04 01:07:01;;;;;;;5.17;1.80;;;16.00;89.10;;;18.81;58.93;100745.78;4974857;28;20188;-58
2023/07/04 01:09:31;;;;;;;5.87;1.83;;;16.00;88.90;;;18.86;59.28;100743.25;4974334;28;20213;-60
2023/07/04 01:12:02;;;;;;;3.90;1.70;;;16.00;89.10;;;18.92;59.18;100741.53;4974629;28;20220;-58
2023/07/04 01:14:29;;;;;;;2.13;1.53;;;16.10;89.60;;;18.97;59.19;100743.50;4974324;28;20220;-62
2023/07/04 01:16:57;;;;;;;2.60;1.63;;;16.20;89.00;;;19.01;59.13;100755.34;4974596;28;20198;-59
2023/07/04 01:19:30;;;;;;;4.87;1.90;;;16.20;89.80;;;19.05;58.99;100751.16;4974338;28;20212;-58
2023/07/04 01:22:12;;;;;;;3.47;1.83;;;16.20;88.90;;;19.07;59.16;100749.06;4974600;28;20183;-57
2023/07/04 01:24:55;;;;;;;3.20;1.87;;;16.30;89.00;;;19.09;59.06;100752.34;4974699;28;20202;-60
2023/07/04 01:27:24;;;;;;;3.23;2.00;;;16.30;88.80;;;19.10;59.05;100744.09;4974533;28;20180;-60
2023/07/04 01:29:53;;;;;;;8.80;2.60;;;16.30;88.80;;;19.12;59.29;100746.53;4974290;28;20201;-58
2023/07/04 01:32:23;;;;;;;5.13;2.17;;;16.30;89.00;;;19.16;59.25;100753.06;4974620;28;20232;-58
2023/07/04 01:34:50;;;;;;;4.00;2.43;;;16.40;89.10;;;19.20;58.96;100748.88;4974330;28;20235;-60
2023/07/04 01:37:18;;;;;;;6.73;2.60;;;16.40;89.30;;;19.23;59.39;100751.09;4977616;28;20203;-60
2023/07/04 01:39:45;;;;;;;4.80;2.37;;;16.40;89.60;;;19.26;59.06;100747.94;4976278;28;20266;-60
2023/07/04 01:42:12;;;;;;;5.17;2.43;;;16.40;89.20;;;19.26;59.12;100761.28;4978021;28;20196;-61
2023/07/04 01:44:40;;;;;;;3.30;2.50;;;16.40;89.40;;;19.26;59.10;100762.09;4977852;28;20258;-58
2023/07/04 01:47:08;;;;;;;4.33;2.37;;;16.40;89.30;;;19.27;59.11;100757.59;4977799;28;20195;-58
2023/07/04 01:49:35;;;;;;;5.07;2.37;;;16.40;89.50;;;19.28;59.17;100756.56;4977420;28;20266;-58
2023/07/04 01:52:02;;;;;;;8.97;2.70;;;16.40;89.60;;;19.29;59.25;100763.50;4977373;28;20205;-56
2023/07/04 01:54:30;;;;;;;3.87;2.27;;;16.40;89.60;;;19.29;59.44;100752.81;4977906;28;20295;-59
2023/07/04 01:56:57;;;;;;;5.20;2.70;;;16.50;89.70;;;19.34;59.55;100755.63;4977697;28;20201;-60
2023/07/04 01:59:24;;;;;;;7.20;2.80;;;16.50;90.00;;;19.36;59.30;100764.22;4976511;28;20311;-60
2023/07/04 02:01:52;;;;;;;7.87;2.80;;;16.50;89.80;;;19.37;59.34;100761.31;4977879;28;20669;-60
2023/07/04 02:04:19;;;;;;;5.27;2.87;;;16.50;89.80;;;19.38;59.03;100764.81;4978027;28;20204;-58
2023/07/04 02:06:46;;;;;;;4.67;2.57;;;16.50;89.80;;;19.39;59.48;100769.13;4977716;28;20199;-62
2023/07/04 02:09:15;;;;;;;8.07;2.73;;;16.50;89.70;;;19.42;59.35;100763.31;4977319;28;20264;-58
2023/07/04 02:11:42;;;;;;;6.87;3.07;;;16.50;90.00;;;19.44;59.42;100769.25;4977575;28;20188;-61
2023/07/04 02:14:09;;;;;;;3.57;2.67;;;16.60;90.00;;;19.46;59.46;100769.81;4977662;28;20272;-63
2023/07/04 02:16:36;;;;;;;6.60;2.53;;;16.60;89.90;;;19.45;59.35;100773.53;4977616;28;20193;-57
2023/07/04 02:19:05;;;;;;;7.43;2.97;;;16.60;89.80;;;19.46;59.08;100767.16;4976886;28;20248;-60
2023/07/04 02:21:32;;;;;;;5.33;2.57;;;16.60;89.80;;;19.46;59.37;100775.16;4976381;28;20214;-59
2023/07/04 02:23:59;;;;;;;6.47;3.10;;;16.60;89.70;;;19.45;59.30;100773.53;4976071;28;20215;-60
2023/07/04 02:26:26;;;;;;;4.90;2.57;;;16.60;89.80;;;19.44;58.88;100771.91;4977215;28;20192;-58
2023/07/04 02:28:53;;;;;;;6.13;2.73;;;16.60;89.60;;;19.44;58.72;100767.38;4977100;28;20619;-60
2023/07/04 02:31:23;;;;;;;5.60;3.17;;;16.60;89.50;;;19.44;59.13;100777.25;4992377;28;20199;-62
2023/07/04 02:33:51;;;;;;;7.50;3.00;;;16.50;89.40;;;19.44;58.96;100777.25;4977416;28;20196;-60
2023/07/04 02:36:20;;;;;;;7.07;2.73;;;16.60;89.40;;;19.45;58.99;100779.69;4976661;28;20192;-59
2023/07/04 02:38:47;;;;;;;8.93;3.13;;;16.60;89.60;;;19.44;58.91;100782.59;4976582;28;20200;-60
2023/07/04 02:41:14;;;;;;;8.47;3.40;;;16.60;89.60;;;19.42;59.20;100779.34;4976883;28;20725;-59
2023/07/04 02:43:41;;;;;;;7.60;3.07;;;16.60;89.50;;;19.40;59.04;100781.41;4976777;28;20200;-59
2023/07/04 02:46:08;;;;;;;5.67;3.10;;;16.60;89.50;;;19.39;59.01;100785.13;4976999;28;20577;-58
2023/07/04 02:48:35;;;;;;;8.00;3.20;;;16.50;89.50;;;19.36;59.13;100780.25;4975923;28;20203;-60
2023/07/04 02:51:03;;;;;;;5.87;3.10;;;16.50;89.70;;;19.35;59.23;100781.28;4976391;28;20208;-60
2023/07/04 02:53:31;;;;;;;6.63;3.03;;;16.50;89.80;;;19.31;59.25;100778.25;4976851;28;20271;-58
2023/07/04 02:55:58;;;;;;;10.53;3.50;;;16.50;89.50;;;19.29;59.40;100779.53;4976828;28;20197;-58
2023/07/04 02:58:25;;;;;;;9.57;3.70;;;16.50;90.00;;;19.29;59.32;100776.84;4976631;28;20587;-63
2023/07/04 03:00:52;;;;;;;4.93;3.57;;;16.50;89.70;;;19.30;59.62;100781.16;4976678;28;20617;-62
2023/07/04 03:03:21;;;;;;;7.00;3.30;;;16.50;89.90;;;19.30;59.36;100783.81;4976669;28;20224;-62
2023/07/04 03:05:49;;;;;;;7.07;3.03;;;16.50;90.00;;;19.28;59.19;100780.56;4976722;28;20561;-60
2023/07/04 03:08:16;;;;;;;5.57;3.20;;;16.50;89.90;;;19.28;59.43;100785.91;4976498;28;20247;-62
2023/07/04 03:10:46;;;;;;;7.07;2.90;;;16.50;89.90;;;19.29;59.25;100791.00;4976025;28;20304;-59
2023/07/04 03:13:14;;;;;;;7.10;3.67;;;16.40;89.90;;;19.32;59.41;100784.41;4991138;28;20189;-61
2023/07/04 03:15:41;;;;;;;7.07;2.87;;;16.50;89.90;;;19.36;59.34;100785.59;4976443;28;20188;-61
2023/07/04 03:18:09;;;;;;;6.43;3.47;;;16.50;89.90;;;19.38;59.39;100783.50;4976154;28;20300;-60
2023/07/04 03:20:36;;;;;;;8.97;3.63;;;16.50;89.90;;;19.42;59.61;100779.34;4976067;28;20212;-61
2023/07/04 03:23:03;;;;;;;7.30;3.07;;;16.60;90.00;;;19.45;59.37;100785.03;4976205;28;20741;-60
2023/07/04 03:25:30;;;;;;;7.40;3.70;;;16.60;90.10;;;19.52;59.33;100787.56;4975986;28;20199;-60
2023/07/04 03:27:59;;;;;;;8.43;3.70;;;16.60;90.00;;;19.49;59.56;100785.38;4976288;28;20277;-60
2023/07/04 03:30:26;;;;;;;9.47;3.87;;;16.60;89.80;;;19.41;59.57;100786.53;4975808;28;20205;-57
2023/07/04 03:32:53;;;;;;;6.03;3.50;;;16.70;89.70;;;19.32;59.73;100785.22;4991062;28;20208;-58
2023/07/04 03:35:20;;;;;;;7.10;3.30;;;16.70;89.50;;;19.32;59.72;100789.75;4975783;28;20204;-62
2023/07/04 03:37:47;;;;;;;6.63;3.83;;;16.70;89.40;;;19.32;59.56;100795.91;4976018;28;20203;-59
2023/07/04 03:40:14;;;;;;;6.60;3.87;;;16.60;89.50;;;19.36;59.47;100798.94;4986741;28;20228;-60
2023/07/04 03:42:41;;;;;;;4.50;3.20;;;16.60;89.60;;;19.39;59.58;100799.31;4956724;28;20221;-61
2023/07/04 03:45:11;;;;;;;7.37;3.50;;;16.60;90.00;;;19.45;59.35;100797.56;4956246;28;20190;-60
2023/07/04 03:47:38;;;;;;;6.23;3.67;;;16.70;89.80;;;19.49;59.08;100801.41;4956320;28;20196;-61
2023/07/04 03:50:07;;;;;;;7.53;3.23;;;16.70;89.70;;;19.51;59.38;100808.16;4956065;28;20217;-56
2023/07/04 03:52:34;;;;;;;5.90;3.33;;;16.70;89.70;;;19.53;58.97;100798.03;4975935;28;20208;-61
2023/07/04 03:55:01;;;;;;;8.30;3.90;;;16.80;89.30;;;19.54;58.86;100809.50;4975515;28;20196;-61
2023/07/04 03:57:28;;;;;;;4.50;3.20;;;16.70;88.90;;;19.46;59.01;100807.19;4976118;28;20196;-60
2023/07/04 03:59:55;;;;;;;8.60;3.87;;;16.70;88.70;;;19.39;59.20;100801.16;4974262;28;20216;-60
2023/07/04 04:02:24;;;;;;;7.67;4.00;;;16.70;88.60;;;19.32;59.37;100809.25;4976032;28;20318;-61
2023/07/04 04:04:51;;;;;;;8.97;3.70;;;16.60;88.80;;;19.23;59.64;100807.13;4977490;28;20193;-61
2023/07/04 04:07:18;;;;;;;9.47;4.43;;;16.60;88.70;;;19.17;60.25;100808.03;4977401;28;20227;-60
2023/07/04 04:09:46;;;;;;;9.90;4.00;;;16.60;89.30;;;19.06;60.27;100811.50;4977336;28;20216;-61
2023/07/04 04:12:13;;;;;;;5.40;4.00;;;16.60;89.20;;;19.04;60.20;100814.38;4975128;28;20717;-59
2023/07/04 04:14:40;;;;;;;5.83;3.23;;;16.50;89.10;;;19.10;59.95;100815.34;4975576;28;20271;-61
2023/07/04 04:17:07;;;;;;;7.43;3.93;;;16.50;89.60;;;19.17;60.11;100819.53;4975137;28;20279;-60
2023/07/04 04:19:36;;;;;;;6.27;3.77;;;16.50;89.70;;;19.23;59.80;100813.28;4974434;28;20216;-59
2023/07/04 04:22:03;;;;;;;6.23;3.17;;;16.50;89.70;;;19.30;59.51;100818.53;4975055;28;20189;-60
2023/07/04 04:24:31;;;;;;;7.47;4.90;;;16.50;89.70;;;19.30;59.64;100813.97;4975043;28;20208;-60
2023/07/04 04:27:02;;;;;;;6.53;4.17;;;16.50;89.70;;;19.28;59.45;100810.72;4974888;28;20189;-59
2023/07/04 04:29:29;;;;;;;6.23;3.77;;;16.50;89.40;;;19.28;59.36;100809.94;4974361;28;20426;-56
2023/07/04 04:31:56;;;;;;;6.43;3.90;;;16.50;89.40;;;19.32;59.74;100811.09;4975005;28;20220;-58
2023/07/04 04:34:23;;;;;;;6.53;3.60;;;16.60;89.50;;;19.37;59.29;100813.94;4974946;28;20188;-61
2023/07/04 04:36:51;;;;;;;10.33;3.37;;;16.60;89.40;;;19.40;59.18;100816.13;4975092;28;20211;-58
2023/07/04 04:39:18;;;;;;;7.93;4.47;;;16.60;89.20;;;19.42;59.12;100828.19;4974324;28;20211;-60
2023/07/04 04:41:45;;;;;;;4.77;3.07;;;16.60;89.10;;;19.44;58.70;100830.66;4974591;28;20328;-62
2023/07/04 04:44:12;;;;;;;5.07;3.33;;;16.60;89.00;;;19.49;59.13;100833.44;4974425;28;20282;-59
2023/07/04 04:46:48;;;;;;;5.80;3.10;;;16.60;89.20;;;19.50;58.57;100829.72;4974541;28;20203;-61
2023/07/04 04:49:17;;;;;;;4.73;3.07;;;16.60;89.10;;;19.53;58.58;100829.25;4974108;28;20209;-61
2023/07/04 04:51:44;;;;;;;7.83;3.33;;;16.60;89.10;;;19.57;58.63;100825.06;4973997;28;20204;-65
2023/07/04 04:54:14;;;;;;;5.77;3.23;;;16.60;89.30;;;19.64;58.98;100828.44;4974652;28;20189;-60
2023/07/04 04:56:43;;;;;;;5.27;3.50;;;16.70;90.00;;;19.70;58.79;100824.88;4974489;28;20616;-62
2023/07/04 04:59:11;;;;;;;9.07;3.90;;;16.70;89.10;;;19.69;58.27;100827.75;4973534;28;20251;-59
2023/07/04 05:01:38;;;;;;;4.73;3.13;;;16.80;88.80;;;19.68;58.48;100829.63;4974360;28;20222;-62
2023/07/04 05:04:06;;;;;;;5.40;3.20;;;16.80;88.60;;;19.73;58.58;100835.06;4974363;28;20193;-60
2023/07/04 05:06:33;;;;;;;4.77;3.20;;;16.90;88.70;;;19.80;58.88;100835.75;4974296;28;20254;-61
2023/07/04 05:09:00;;;;;;;5.87;3.00;;;16.90;88.70;;;19.88;58.48;100829.25;4973806;28;20216;-61
2023/07/04 05:11:32;;;;;;;4.20;3.30;;;16.90;88.70;;;19.88;58.20;100827.41;4976036;28;20570;-61
2023/07/04 05:14:00;;;;;;;6.13;3.33;;;17.00;88.20;;;19.90;58.12;100830.66;4978358;28;20192;-62
2023/07/04 05:16:27;;;;;;;4.60;3.60;;;17.00;88.20;;;19.94;58.13;100837.19;4978323;28;20227;-62
2023/07/04 05:18:54;;;;;;;8.33;3.43;;;17.10;88.20;;;19.97;57.67;100836.69;4977670;28;20220;-61
2023/07/04 05:21:23;;;;;;;15.23;12.57;;;17.10;87.90;;;19.88;58.04;100832.75;4978029;28;20209;-62
2023/07/04 05:23:52;;;;;;;9.47;4.10;;;17.10;87.70;;;19.91;57.80;100834.16;4976797;28;20291;-61
2023/07/04 05:26:22;;;;;;;7.73;4.40;;;17.10;87.70;;;19.90;57.99;100841.34;4977658;28;20275;-60
2023/07/04 05:28:54;;;;;;;8.30;4.37;;;17.10;87.60;;;19.92;58.06;100849.94;4977646;28;20306;-61
2023/07/04 05:31:24;;;;;;;7.17;4.37;;;17.10;87.80;;;19.97;57.79;100842.03;4978044;28;20745;-62
2023/07/04 05:33:53;;;;;;;8.67;4.20;;;17.20;87.90;;;20.00;58.09;100852.28;4977747;28;20708;-61
2023/07/04 05:36:23;;;;;;;9.50;4.40;;;17.20;87.80;;;20.09;57.61;100845.53;4977880;28;20207;-61
2023/07/04 05:38:52;;;;;;;6.93;3.97;;;17.20;87.90;;;20.21;57.69;100851.66;4977158;28;20224;-61
2023/07/04 05:41:23;;;;;;;6.67;4.67;;;17.30;88.10;;;20.31;57.15;100847.59;4977729;28;20220;-60
2023/07/04 05:43:53;;;;;;;6.47;4.47;;;17.30;87.70;;;20.40;57.26;100863.06;4977685;28;20254;-61
2023/07/04 05:46:20;;;;;;;7.57;4.47;;;17.40;87.70;;;20.47;56.82;100861.06;4977732;28;20664;-64
2023/07/04 05:48:48;;;;;;;9.23;4.20;;;17.50;87.70;;;20.55;56.54;100844.66;4976884;28;20208;-61
2023/07/04 05:51:18;;;;;;;9.57;4.33;;;17.50;87.20;;;20.58;56.11;100859.41;4977566;28;20204;-60
2023/07/04 05:53:48;;;;;;;9.83;4.70;;;17.50;86.60;;;20.55;55.95;100865.22;4977537;28;20279;-58
2023/07/04 05:56:18;;;;;;;8.73;4.97;;;17.60;86.40;;;20.39;56.21;100855.28;4977365;28;20232;-60
2023/07/04 05:58:51;;;;;;;7.67;3.17;;;17.60;85.80;;;20.35;56.52;100860.28;4976895;28;20228;-60
2023/07/04 06:01:22;;;;;;;8.10;3.70;;;17.60;85.80;;;20.41;56.22;100858.53;4977255;28;20300;-61
2023/07/04 06:03:50;;;;;;;8.57;3.63;;;17.60;86.00;;;20.51;56.29;100869.44;4977124;28;20610;-61
2023/07/04 06:06:21;;;;;;;8.03;3.63;;;17.60;86.00;;;20.58;56.20;100864.78;4976697;28;20239;-59
2023/07/04 06:08:49;;;;;;;6.33;3.47;;;17.60;86.00;;;20.58;56.20;100868.25;4976696;28;20244;-60
2023/07/04 06:11:18;;;;;;;7.63;3.67;;;17.70;85.60;;;20.61;56.23;100872.31;4977225;28;20295;-60
2023/07/04 06:13:45;;;;;;;5.23;3.30;;;17.70;85.50;;;20.62;55.80;100872.09;4976534;28;20413;-60
2023/07/04 06:16:13;;;;;;;7.83;3.70;;;17.70;85.10;;;20.56;55.36;100870.34;4976901;28;20637;-61
2023/07/04 06:18:41;;;;;;;10.30;3.47;;;17.70;84.30;;;20.53;55.89;100870.84;4976131;28;20507;-58
2023/07/04 06:21:10;;;;;;;10.07;3.33;;;17.80;84.40;;;20.53;55.29;100868.16;4976615;28;20662;-57
2023/07/04 06:23:38;;;;;;;6.50;2.97;;;17.80;84.10;;;20.65;55.42;100871.63;4975669;28;20271;-57
2023/07/04 06:26:07;;;;;;;5.00;2.73;;;17.90;83.90;;;20.72;55.32;100872.28;4976262;28;20283;-60
2023/07/04 06:28:36;;;;;;;10.40;3.20;;;17.90;83.60;;;20.88;54.67;100884.09;4975971;28;20202;-59
2023/07/04 06:31:05;;;;;;;4.70;2.67;;;18.00;83.50;;;21.06;54.35;100878.56;4976687;28;20196;-60
2023/07/04 06:33:34;;;;;;;6.63;2.97;;;18.10;83.80;;;21.23;54.38;100883.97;4976609;28;20556;-60
2023/07/04 06:36:01;;;;;;;5.47;3.00;;;18.20;83.80;;;21.37;53.67;100886.09;4976634;28;20196;-58
2023/07/04 06:38:28;;;;;;;7.10;3.20;;;18.30;83.30;;;21.48;53.14;100887.91;4975612;28;20199;-61
2023/07/04 06:40:56;;;;;;;3.50;2.83;;;18.40;83.20;;;21.38;53.89;100892.28;4976089;28;20259;-62
2023/07/04 06:43:25;;;;;;;5.93;2.80;;;18.40;82.70;;;21.41;53.46;100897.16;4975704;28;20272;-59
2023/07/04 06:45:52;;;;;;;4.73;2.80;;;18.50;82.60;;;21.46;53.82;100895.38;4976100;28;20684;-60
2023/07/04 06:48:20;;;;;;;7.53;3.03;;;18.50;82.20;;;21.55;53.61;100890.44;4976500;28;20555;-60
2023/07/04 06:50:57;;;;;;;10.30;3.33;;;18.60;82.30;;;21.63;52.99;100903.44;4975635;28;20339;-60
2023/07/04 06:53:24;;;;;;;6.20;3.10;;;18.70;81.80;;;21.70;52.32;100897.91;4975522;28;20185;-60
2023/07/04 06:55:52;;;;;;;6.20;3.47;;;18.70;81.30;;;21.58;52.79;100906.81;4976082;28;20662;-60
2023/07/04 06:58:20;;;;;;;6.57;2.77;;;18.80;80.90;;;21.67;52.77;100901.88;4975953;28;20197;-59
2023/07/04 07:00:54;;;;;;;5.63;3.23;;;18.80;81.10;;;21.80;52.50;100908.78;4974886;28;20231;-59
2023/07/04 07:03:22;;;;;;;9.47;3.20;;;18.80;80.50;;;21.86;52.17;100902.47;4975868;28;20200;-60
2023/07/04 07:05:49;;;;;;;5.40;2.43;;;18.90;80.50;;;21.99;51.64;100904.81;4976029;28;20220;-60
2023/07/04 07:08:18;;;;;;;5.00;2.90;;;19.00;80.50;;;22.05;51.43;100904.66;4976101;28;20303;-60
2023/07/04 07:10:53;;;;;;;7.17;3.00;;;19.10;79.70;;;21.98;51.13;100908.56;4975773;28;20221;-61
2023/07/04 07:13:21;;;;;;;5.83;2.30;;;19.10;79.10;;;22.11;51.21;100909.03;4975943;28;20625;-61
2023/07/04 07:15:48;;;;;;;7.03;3.40;;;19.20;78.20;;;22.28;50.39;100903.63;4976017;28;20614;-58
2023/07/04 07:18:15;;;;;;;5.20;2.60;;;19.20;78.20;;;22.42;50.15;100904.91;4976376;28;20196;-59
2023/07/04 07:20:42;;;;;;;5.23;1.90;;;19.30;78.00;;;22.41;49.37;100908.66;4975484;28;20216;-59
2023/07/04 07:23:11;;;;;;;5.77;2.40;;;19.40;76.70;;;22.56;49.19;100913.41;4975618;28;20267;-60
2023/07/04 07:25:41;;;;;;;3.33;2.03;;;19.50;76.70;;;22.64;49.20;100918.38;4975551;28;20235;-61
2023/07/04 07:28:08;;;;;;;6.40;2.37;;;19.60;76.80;;;22.78;48.82;100919.63;4975396;28;20216;-61
2023/07/04 07:30:35;;;;;;;4.73;2.23;;;19.70;76.70;;;22.92;48.68;100922.75;4973602;28;20648;-60
2023/07/04 07:33:02;;;;;;;3.93;2.40;;;19.80;75.90;;;23.00;48.23;100923.09;4975748;28;20192;-61
2023/07/04 07:35:32;;;;;;;3.67;1.83;;;19.90;75.40;;;23.00;46.86;100933.03;4975311;28;20196;-61
2023/07/04 07:37:59;;;;;;;4.07;1.97;;;19.90;73.00;;;23.04;47.06;100931.44;4975571;28;20205;-62
2023/07/04 07:40:26;;;;;;;4.70;1.73;;;20.00;73.30;;;23.14;46.80;100931.56;4974271;28;20307;-59
2023/07/04 07:42:54;;;;;;;5.30;2.07;;;20.00;72.70;;;23.22;46.34;100931.13;4975366;28;20220;-59
2023/07/04 07:45:21;;;;;;;2.23;1.50;;;20.00;72.00;;;23.23;46.33;100922.00;4975155;28;20196;-59
2023/07/04 07:47:49;;;;;;;3.53;2.27;;;20.10;72.10;;;23.25;46.24;100925.25;4975249;28;20658;-60
2023/07/04 07:50:16;;;;;;;3.27;2.07;;;20.10;72.00;;;23.33;45.91;100932.84;4973422;28;20240;-61
2023/07/04 07:52:43;;;;;;;4.97;1.57;;;20.20;71.50;;;23.32;45.47;100918.59;4974852;28;20199;-61
2023/07/04 07:55:10;;;;;;;3.17;1.77;;;20.20;70.70;;;23.30;45.33;100928.78;4974822;28;20228;-59
2023/07/04 07:57:37;;;;;;;3.20;1.93;;;20.20;70.60;;;23.33;45.60;100922.09;4974565;28;20228;-61
2023/07/04 08:00:07;;;;;;;4.53;2.03;;;20.30;70.80;;;23.42;45.43;100917.91;4974060;28;20227;-61
2023/07/04 08:02:34;;;;;;;2.43;1.90;;;20.30;70.60;;;23.52;44.91;100915.34;4974476;28;20212;-60
2023/07/04 08:05:01;;;;;;;4.30;1.80;;;20.30;70.40;;;23.59;44.96;100932.06;4974338;28;20263;-61
2023/07/04 08:07:28;;;;;;;5.13;1.90;;;20.40;70.30;;;23.60;44.68;100922.94;4974800;28;20192;-64
2023/07/04 08:09:56;;;;;;;5.80;1.90;;;20.40;69.40;;;23.54;44.44;100934.69;4974315;28;20225;-60
2023/07/04 08:12:23;;;;;;;2.93;1.90;;;20.40;69.20;;;23.48;44.68;100928.47;4974678;28;20188;-60
2023/07/04 08:14:50;;;;;;;2.73;1.70;;;20.40;69.30;;;23.41;44.61;100935.13;4974974;28;20353;-58
2023/07/04 08:17:20;;;;;;;3.90;1.87;;;20.40;69.20;;;23.43;43.96;100938.38;4973739;28;20307;-60
2023/07/04 08:19:47;;;;;;;2.73;1.70;;;20.40;67.60;;;23.78;43.40;100930.63;4975470;28;20220;-60
2023/07/04 08:22:15;;;;;;;4.13;1.73;;;20.60;67.60;;;24.59;42.40;100939.25;4975256;28;20307;-59
2023/07/04 08:24:42;;;;;;;2.60;1.80;;;20.80;67.10;;;25.32;40.06;100935.47;4975394;28;20199;-60
2023/07/04 08:27:09;;;;;;;2.27;1.60;;;21.10;65.00;;;26.20;38.40;100932.31;4974052;28;20188;-60
2023/07/04 08:29:36;;;;;;;2.30;2.10;;;21.50;64.10;;;26.79;35.84;100935.09;4974655;28;20291;-61
2023/07/04 08:32:05;;;;;;;4.80;1.60;;;22.00;60.30;;;26.63;35.56;100930.00;4972876;28;20224;-62
2023/07/04 08:34:36;;;;;;;2.77;1.60;;;22.30;58.20;;;26.31;36.25;100949.31;4974316;28;20192;-62
2023/07/04 08:37:03;;;;;;;3.13;1.80;;;22.50;58.70;;;26.09;36.59;100936.06;4973729;28;20558;-61
2023/07/04 08:39:30;;;;;;;2.93;1.57;;;22.50;58.40;;;25.84;37.43;100938.00;4973065;28;20224;-61
2023/07/04 08:42:02;;;;;;;4.07;1.67;;;22.50;58.20;;;25.38;37.44;100946.00;4974138;28;20570;-60
2023/07/04 08:44:35;;;;;;;3.30;1.67;;;22.30;57.60;;;25.19;37.93;100950.28;4973557;28;20608;-60
2023/07/04 08:47:02;;;;;;;1.50;1.17;;;22.20;57.70;;;24.80;37.32;100943.66;4973626;28;20279;-60
2023/07/04 08:49:39;;;;;;;4.90;1.90;;;22.00;57.10;;;24.76;37.26;100942.56;4973347;28;20222;-61
2023/07/04 08:52:17;;;;;;;5.53;1.87;;;21.90;56.60;;;24.75;37.59;100946.31;4973227;28;20227;-62
2023/07/04 08:54:44;;;;;;;2.77;1.50;;;21.80;56.30;;;24.80;36.73;100962.53;4973671;28;20185;-60
2023/07/04 08:57:26;;;;;;;2.43;2.07;;;21.80;56.60;;;24.93;36.61;100958.53;4973631;28;20287;-60
2023/07/04 09:00:01;;;;;;;2.87;1.70;;;21.80;56.40;;;25.06;36.67;100956.16;4973587;28;20291;-61
2023/07/04 09:03:02;;;;;;;1.73;1.33;;;21.80;56.30;;;25.04;36.23;100960.19;4972493;28;20685;-60
2023/07/04 09:05:46;;;;;;;3.47;1.50;;;21.80;55.50;;;25.10;36.28;100975.31;4968893;28;20224;-63
2023/07/04 09:08:31;;;;;;;2.77;1.63;;;21.80;56.10;;;25.25;36.73;100970.78;4955755;28;20197;-60
2023/07/04 09:11:03;;;;;;;2.97;1.70;;;21.90;56.40;;;25.41;35.92;100977.81;4956898;28;20207;-60
2023/07/04 09:13:35;;;;;;;3.83;2.30;;;21.90;55.30;;;25.67;35.14;100970.63;4973352;28;20188;-60
2023/07/04 09:16:11;;;;;;;2.87;1.70;;;22.00;55.20;;;25.72;34.81;100972.50;4973335;28;20225;-59
2023/07/04 09:18:49;;;;;;;3.10;1.83;;;22.10;53.70;;;25.54;34.22;100971.94;4973729;28;20228;-60
2023/07/04 09:21:21;;;;;;;3.37;1.07;;;22.20;53.70;;;25.35;34.90;100973.50;4970062;28;20582;-61
2023/07/04 09:23:51;;;;;;;3.60;1.43;;;22.20;53.60;;;25.33;35.05;100991.84;4981617;28;20204;-60
2023/07/04 09:26:26;;;;;;;2.43;1.20;;;22.10;53.40;;;25.38;34.43;100982.94;4972639;28;20188;-62
2023/07/04 09:28:57;;;;;;;2.53;1.43;;;22.00;53.50;;;25.50;34.27;100988.94;4973526;28;20681;-62
2023/07/04 09:31:31;;;;;;;2.43;1.77;;;22.10;53.50;;;25.57;34.49;100985.97;4972754;28;20196;-62
2023/07/04 09:34:07;;;;;;;3.77;1.47;;;22.10;52.60;;;25.52;34.46;100987.59;4973157;28;20208;-62
2023/07/04 09:36:39;;;;;;;2.67;2.40;;;22.20;52.40;;;25.52;34.47;101001.06;4973190;28;20200;-61
2023/07/04 09:39:08;;;;;;;4.70;1.57;;;22.20;52.30;;;25.52;33.81;100986.78;4973002;28;20219;-61
2023/07/04 09:41:40;;;;;;;2.53;1.30;;;22.20;52.00;;;25.58;33.51;100982.22;4973167;28;20209;-61
2023/07/04 09:44:28;;;;;;;4.37;1.83;;;22.20;52.00;;;25.53;33.88;100991.88;4973197;28;20650;-64
2023/07/04 09:47:00;;;;;;;6.57;1.83;;;22.20;52.20;;;25.54;34.64;100990.81;4972455;28;20222;-62
2023/07/04 09:49:30;;;;;;;2.63;1.20;;;22.30;52.80;;;25.56;34.79;100982.47;4972762;28;20220;-61
2023/07/04 09:52:01;;;;;;;2.93;1.63;;;22.30;53.00;;;25.54;33.54;100985.44;4971127;28;20259;-62
2023/07/04 09:54:30;;;;;;;3.67;1.70;;;22.30;51.60;;;25.40;32.84;101003.16;4974825;28;20192;-62
2023/07/04 09:57:20;;;;;;;1.67;1.43;;;22.30;50.20;;;25.14;33.12;100990.69;4971955;28;20211;-61
2023/07/04 09:59:49;;;;;;;2.50;1.50;;;22.20;50.20;;;25.05;34.17;101000.38;4968052;28;20240;-63
2023/07/04 10:02:31;;;;;;;3.10;1.80;;;22.00;50.80;;;24.93;34.14;101004.34;4974496;28;20220;-62
2023/07/04 10:04:58;;;;;;;4.67;2.07;;;22.00;50.90;;;24.83;33.78;100999.72;4975418;28;20204;-61
2023/07/04 10:07:27;;;;;;;4.80;2.20;;;21.90;51.10;;;24.77;34.90;100993.47;4975216;28;20295;-62
2023/07/04 10:09:59;;;;;;;3.57;1.40;;;21.90;51.90;;;24.68;35.00;101004.97;4974072;28;20643;-59
2023/07/04 10:12:31;;;;;;;3.30;2.20;;;21.70;51.70;;;24.59;34.92;101006.56;4975668;28;20216;-61
2023/07/04 10:15:00;;;;;;;7.03;2.40;;;21.70;51.80;;;24.59;35.05;101017.31;4973654;28;20200;-61
2023/07/04 10:17:35;;;;;;;6.60;2.20;;;21.60;51.90;;;24.57;34.41;101008.69;4966774;28;20546;-60
2023/07/04 10:20:12;;;;;;;4.00;1.97;;;21.60;52.10;;;24.62;35.15;101000.66;4973805;28;20244;-60
2023/07/04 10:22:47;;;;;;;5.10;1.60;;;21.60;52.20;;;24.51;35.01;101005.16;4974833;28;20208;-60